This is the latest recevied weather packets stored in our database for station/object SQ3VAS-10. If no packets are shown the sender has not sent any weather packets the latest 10 day(s).
| Time | Temp. | Humidity | Pressure | Rain* | Wind** | Luminosity | Snow |
|---|---|---|---|---|---|---|---|
| 1778003932 | 16.67° C | 77% | 1009.2 hPa | - | - | - | - |
| 1778003359 | 16.67° C | 76% | 1009.1 hPa | - | - | - | - |
| 1778002788 | 17.22° C | 75% | 1009.2 hPa | - | - | - | - |
| 1778002215 | 17.22° C | 76% | 1009.1 hPa | - | - | - | - |
| 1778001642 | 17.78° C | 73% | 1009.1 hPa | - | - | - | - |
| 1778001071 | 17.78° C | 72% | 1009.1 hPa | - | - | - | - |
| 1778000498 | 18.33° C | 71% | 1009.1 hPa | - | - | - | - |
| 1777999926 | 18.33° C | 70% | 1009.1 hPa | - | - | - | - |
| 1777999353 | 18.33° C | 69% | 1009.2 hPa | - | - | - | - |
| 1777998779 | 18.89° C | 68% | 1009.2 hPa | - | - | - | - |
| 1777998207 | 18.89° C | 68% | 1009.3 hPa | - | - | - | - |
| 1777997635 | 18.89° C | 67% | 1009.3 hPa | - | - | - | - |
| 1777997063 | 19.44° C | 67% | 1009.3 hPa | - | - | - | - |
| 1777996491 | 19.44° C | 66% | 1009.3 hPa | - | - | - | - |
| 1777995919 | 20° C | 66% | 1009.3 hPa | - | - | - | - |
| 1777995345 | 20° C | 67% | 1009.4 hPa | - | - | - | - |
| 1777994773 | 19.44° C | 67% | 1009.4 hPa | - | - | - | - |
| 1777994201 | 19.44° C | 67% | 1009.4 hPa | - | - | - | - |
| 1777993630 | 20° C | 64% | 1009.5 hPa | - | - | - | - |
| 1777993056 | 20.56° C | 63% | 1009.3 hPa | - | - | - | - |
| 1777992485 | 20.56° C | 64% | 1009.4 hPa | - | - | - | - |
| 1777991913 | 21.67° C | 61% | 1009.3 hPa | - | - | - | - |
| 1777991341 | 22.22° C | 59% | 1009.2 hPa | - | - | - | - |
| 1777990768 | 21.11° C | 63% | 1009.3 hPa | - | - | - | - |
| 1777989621 | 21.11° C | 68% | 1009.5 hPa | - | - | - | - |
* Rain since midnight (hover to see other rain measurements)
** Current wind speed in m/s (hover to see current wind gust speed)